Ever Delight — 3FCB8 — position and weather

sailwx.info

Track history (hours):
 
Tides and Currents Weather Stations Pressure Air Temp Water Temp Dewpoint Dewpoint Depression Visibility Wind Speed Wind Dir Waves Ship Positions

Ever Delight

Last reported at 2014-Nov-23 20:33 UTC. Time now 2014-Nov-28 09:49 UTC.
Position N 30°35' E 122°51'.

Type: Cargo ship. MMSI: 351936000.

Date/timePositionNaut miles runAvg speedWind from/ knotsBaromVisibWave heightAir tempDewpointWater temp
2014-Nov-23 20:33N 30°35' E 122°51'2018.5
2014-Nov-23 19:29N 30°31' E 122°29'1415.5
2014-Nov-23 18:33N 30°33' E 122°13'8 8.0
2014-Nov-23 17:33N 30°37' E 122°04'0 0.1
2014-Nov-23 16:33N 30°37' E 122°04'0 0.1
2014-Nov-23 15:33N 30°37' E 122°04'0 0.1
2014-Nov-23 14:33N 30°37' E 122°04'0 0.0
2014-Nov-23 13:33N 30°37' E 122°04'0 0.1
2014-Nov-23 12:33N 30°37' E 122°04'0 0.0
2014-Nov-23 11:32N 30°37' E 122°04'0 0.0
2014-Nov-23 10:32N 30°37' E 122°04'0 0.1
2014-Nov-23 09:32N 30°37' E 122°04'0 0.0
2014-Nov-23 08:32N 30°37' E 122°04'0 0.1
2014-Nov-23 07:34N 30°37' E 122°04'10 9.9
2014-Nov-23 06:33N 30°34' E 122°15'10 8.3
2014-Nov-23 05:21N 30°32' E 122°27'10 8.5
2014-Nov-23 04:12N 30°31' E 122°38'811.9
2014-Nov-23 03:33N 30°34' E 122°46'8 7.2
2014-Nov-23 02:30N 30°27' E 122°49'1714.3
2014-Nov-23 01:17N 30°12' E 123°00'2212.6
2014-Nov-22 23:30N 29°51' E 122°51'1313.5
2014-Nov-22 22:33N 29°43' E 122°40'1211.8
2014-Nov-22 21:33N 29°42' E 122°26'1313.4
2014-Nov-22 20:33N 29°49' E 122°13'1010.1
2014-Nov-22 19:32N 29°54' E 122°02'0 0.0
2014-Nov-22 18:27N 29°54' E 122°02'0 0.0
2014-Nov-22 17:30N 29°54' E 122°02'0 0.0
2014-Nov-22 15:34N 29°54' E 122°02'0 0.0
2014-Nov-22 14:28N 29°54' E 122°02'0 0.0
2014-Nov-22 12:34N 29°54' E 122°02'0 0.0
2014-Nov-22 10:34N 29°54' E 122°02'0 0.0
2014-Nov-22 09:21N 29°54' E 122°02'0 0.0
2014-Nov-22 08:33N 29°54' E 122°02'0 0.2
2014-Nov-22 07:28N 29°54' E 122°03'7 7.8
2014-Nov-22 06:33N 29°54' E 122°11'1211.5
2014-Nov-22 05:31N 29°45' E 122°19'3 2.7
2014-Nov-22 04:21N 29°42' E 122°20'0 0.1
2014-Nov-22 03:27N 29°42' E 122°20'0 0.1
2014-Nov-22 02:14N 29°42' E 122°20'0 0.1
2014-Nov-22 01:31N 29°42' E 122°20'5 4.7
2014-Nov-22 00:33N 29°44' E 122°25'8 8.0
2014-Nov-21 23:33N 29°41' E 122°33'3313.5
2014-Nov-21 21:08N 29°09' E 122°39'913.7
2014-Nov-21 20:28N 29°00' E 122°36'32414.1
2014-Nov-20 21:24N 24°27' E 119°20'30112.3
2014-Nov-19 21:03N 22°34' E 114°16'1 1.1
2014-Nov-19 20:29N 22°34' E 114°15'0 0.0
2014-Nov-19 19:24N 22°34' E 114°15'0 0.0
2014-Nov-19 18:29N 22°34' E 114°15'0 0.0
2014-Nov-19 17:29N 22°34' E 114°15'0 0.0
2014-Nov-19 16:23N 22°34' E 114°15'0 0.0
2014-Nov-19 15:29N 22°34' E 114°15'0 0.0
2014-Nov-19 14:29N 22°34' E 114°15'0 0.0
2014-Nov-19 13:30N 22°34' E 114°15'0 0.0
2014-Nov-19 12:15N 22°34' E 114°15'21 5.6
2014-Nov-19 08:28N 22°14' E 114°08'6 5.4
2014-Nov-19 07:25N 22°20' E 114°07'0 0.0
2014-Nov-19 01:31N 22°19' E 114°07'0 0.0
2014-Nov-19 00:31N 22°19' E 114°07'0 0.0
2014-Nov-18 23:13N 22°19' E 114°07'0 0.1
2014-Nov-18 22:31N 22°19' E 114°07'0 0.0
2014-Nov-18 19:24N 22°19' E 114°07'0 0.0
2014-Nov-18 18:17N 22°19' E 114°07'0 0.0
2014-Nov-18 17:29N 22°19' E 114°07'2 1.0
2014-Nov-18 15:31N 22°18' E 114°06'30811.9
2014-Nov-17 13:33N 22°31' E 119°38'1717.1
2014-Nov-17 12:33N 22°32' E 119°57'1716.8
2014-Nov-17 11:33N 22°33' E 120°15'4 4.2
2014-Nov-17 10:30N 22°33' E 120°20'0 0.0
2014-Nov-17 09:29N 22°33' E 120°20'0 0.0
2014-Nov-17 08:30N 22°33' E 120°20'0 0.0
2014-Nov-17 07:24N 22°33' E 120°20'0 0.0
2014-Nov-17 06:23N 22°33' E 120°20'0 0.0
2014-Nov-17 05:11N 22°33' E 120°20'0 0.0
2014-Nov-17 04:29N 22°33' E 120°20'0 0.0
2014-Nov-17 03:17N 22°33' E 120°20'0 0.0
2014-Nov-17 02:17N 22°33' E 120°20'0 0.0
2014-Nov-17 01:29N 22°33' E 120°20'0 0.0
2014-Nov-17 00:29N 22°33' E 120°20'0 0.0
2014-Nov-16 23:29N 22°33' E 120°20'0 0.0
2014-Nov-16 22:23N 22°33' E 120°20'0 0.0
2014-Nov-16 21:29N 22°33' E 120°20'0 0.0
2014-Nov-16 20:29N 22°33' E 120°20'0 0.0
2014-Nov-16 19:25N 22°33' E 120°20'0 0.0
2014-Nov-16 17:25N 22°33' E 120°20'0 0.0
2014-Nov-16 16:33N 22°33' E 120°20'4 4.2
2014-Nov-16 15:34N 22°32' E 120°15'7 7.5
2014-Nov-16 14:33N 22°25' E 120°12'0 0.4
2014-Nov-16 13:34N 22°26' E 120°11'1 0.9
2014-Nov-16 12:33N 22°26' E 120°11'1 1.0
2014-Nov-16 11:33N 22°27' E 120°10'1 1.0
2014-Nov-16 10:33N 22°27' E 120°09'1 0.9
2014-Nov-16 09:34N 22°27' E 120°08'1 0.6
2014-Nov-16 08:34N 22°27' E 120°07'0 0.3
2014-Nov-16 07:33N 22°28' E 120°07'10 9.9
2014-Nov-16 06:34N 22°37' E 120°06'1313.0
2014-Nov-16 05:34N 22°50' E 120°00'  
Track history (hours):
 
Tides and Currents Weather Stations Pressure Air Temp Water Temp Dewpoint Dewpoint Depression Visibility Wind Speed Wind Dir Waves Ship Positions

Ever Delight

Last reported at 2014-Nov-23 20:33 UTC. Time now 2014-Nov-28 09:49 UTC.
Position N 30°35' E 122°51'.

Type: Cargo ship. MMSI: 351936000.

Date/timePositionNaut miles runAvg speedWind from/ knotsBaromVisibWave heightAir tempDewpointWater temp
2014-Nov-23 20:33N 30°35' E 122°51'2018.5
2014-Nov-23 19:29N 30°31' E 122°29'1415.5
2014-Nov-23 18:33N 30°33' E 122°13'8 8.0
2014-Nov-23 17:33N 30°37' E 122°04'0 0.1
2014-Nov-23 16:33N 30°37' E 122°04'0 0.1
2014-Nov-23 15:33N 30°37' E 122°04'0 0.1
2014-Nov-23 14:33N 30°37' E 122°04'0 0.0
2014-Nov-23 13:33N 30°37' E 122°04'0 0.1
2014-Nov-23 12:33N 30°37' E 122°04'0 0.0
2014-Nov-23 11:32N 30°37' E 122°04'0 0.0
2014-Nov-23 10:32N 30°37' E 122°04'0 0.1
2014-Nov-23 09:32N 30°37' E 122°04'0 0.0
2014-Nov-23 08:32N 30°37' E 122°04'0 0.1
2014-Nov-23 07:34N 30°37' E 122°04'10 9.9
2014-Nov-23 06:33N 30°34' E 122°15'10 8.3
2014-Nov-23 05:21N 30°32' E 122°27'10 8.5
2014-Nov-23 04:12N 30°31' E 122°38'811.9
2014-Nov-23 03:33N 30°34' E 122°46'8 7.2
2014-Nov-23 02:30N 30°27' E 122°49'1714.3
2014-Nov-23 01:17N 30°12' E 123°00'2212.6
2014-Nov-22 23:30N 29°51' E 122°51'1313.5
2014-Nov-22 22:33N 29°43' E 122°40'1211.8
2014-Nov-22 21:33N 29°42' E 122°26'1313.4
2014-Nov-22 20:33N 29°49' E 122°13'1010.1
2014-Nov-22 19:32N 29°54' E 122°02'0 0.0
2014-Nov-22 18:27N 29°54' E 122°02'0 0.0
2014-Nov-22 17:30N 29°54' E 122°02'0 0.0
2014-Nov-22 15:34N 29°54' E 122°02'0 0.0
2014-Nov-22 14:28N 29°54' E 122°02'0 0.0
2014-Nov-22 12:34N 29°54' E 122°02'0 0.0
2014-Nov-22 10:34N 29°54' E 122°02'0 0.0
2014-Nov-22 09:21N 29°54' E 122°02'0 0.0
2014-Nov-22 08:33N 29°54' E 122°02'0 0.2
2014-Nov-22 07:28N 29°54' E 122°03'7 7.8
2014-Nov-22 06:33N 29°54' E 122°11'1211.5
2014-Nov-22 05:31N 29°45' E 122°19'3 2.7
2014-Nov-22 04:21N 29°42' E 122°20'0 0.1
2014-Nov-22 03:27N 29°42' E 122°20'0 0.1
2014-Nov-22 02:14N 29°42' E 122°20'0 0.1
2014-Nov-22 01:31N 29°42' E 122°20'5 4.7
2014-Nov-22 00:33N 29°44' E 122°25'8 8.0
2014-Nov-21 23:33N 29°41' E 122°33'3313.5
2014-Nov-21 21:08N 29°09' E 122°39'913.7
2014-Nov-21 20:28N 29°00' E 122°36'32414.1
2014-Nov-20 21:24N 24°27' E 119°20'30112.3
2014-Nov-19 21:03N 22°34' E 114°16'1 1.1
2014-Nov-19 20:29N 22°34' E 114°15'0 0.0
2014-Nov-19 19:24N 22°34' E 114°15'0 0.0
2014-Nov-19 18:29N 22°34' E 114°15'0 0.0
2014-Nov-19 17:29N 22°34' E 114°15'0 0.0
2014-Nov-19 16:23N 22°34' E 114°15'0 0.0
2014-Nov-19 15:29N 22°34' E 114°15'0 0.0
2014-Nov-19 14:29N 22°34' E 114°15'0 0.0
2014-Nov-19 13:30N 22°34' E 114°15'0 0.0
2014-Nov-19 12:15N 22°34' E 114°15'21 5.6
2014-Nov-19 08:28N 22°14' E 114°08'6 5.4
2014-Nov-19 07:25N 22°20' E 114°07'0 0.0
2014-Nov-19 01:31N 22°19' E 114°07'0 0.0
2014-Nov-19 00:31N 22°19' E 114°07'0 0.0
2014-Nov-18 23:13N 22°19' E 114°07'0 0.1
2014-Nov-18 22:31N 22°19' E 114°07'0 0.0
2014-Nov-18 19:24N 22°19' E 114°07'0 0.0
2014-Nov-18 18:17N 22°19' E 114°07'0 0.0
2014-Nov-18 17:29N 22°19' E 114°07'2 1.0
2014-Nov-18 15:31N 22°18' E 114°06'30811.9
2014-Nov-17 13:33N 22°31' E 119°38'1717.1
2014-Nov-17 12:33N 22°32' E 119°57'1716.8
2014-Nov-17 11:33N 22°33' E 120°15'4 4.2
2014-Nov-17 10:30N 22°33' E 120°20'0 0.0
2014-Nov-17 09:29N 22°33' E 120°20'0 0.0
2014-Nov-17 08:30N 22°33' E 120°20'0 0.0
2014-Nov-17 07:24N 22°33' E 120°20'0 0.0
2014-Nov-17 06:23N 22°33' E 120°20'0 0.0
2014-Nov-17 05:11N 22°33' E 120°20'0 0.0
2014-Nov-17 04:29N 22°33' E 120°20'0 0.0
2014-Nov-17 03:17N 22°33' E 120°20'0 0.0
2014-Nov-17 02:17N 22°33' E 120°20'0 0.0
2014-Nov-17 01:29N 22°33' E 120°20'0 0.0
2014-Nov-17 00:29N 22°33' E 120°20'0 0.0
2014-Nov-16 23:29N 22°33' E 120°20'0 0.0
2014-Nov-16 22:23N 22°33' E 120°20'0 0.0
2014-Nov-16 21:29N 22°33' E 120°20'0 0.0
2014-Nov-16 20:29N 22°33' E 120°20'0 0.0
2014-Nov-16 19:25N 22°33' E 120°20'0 0.0
2014-Nov-16 17:25N 22°33' E 120°20'0 0.0
2014-Nov-16 16:33N 22°33' E 120°20'4 4.2
2014-Nov-16 15:34N 22°32' E 120°15'7 7.5
2014-Nov-16 14:33N 22°25' E 120°12'0 0.4
2014-Nov-16 13:34N 22°26' E 120°11'1 0.9
2014-Nov-16 12:33N 22°26' E 120°11'1 1.0
2014-Nov-16 11:33N 22°27' E 120°10'1 1.0
2014-Nov-16 10:33N 22°27' E 120°09'1 0.9
2014-Nov-16 09:34N 22°27' E 120°08'1 0.6
2014-Nov-16 08:34N 22°27' E 120°07'0 0.3
2014-Nov-16 07:33N 22°28' E 120°07'10 9.9
2014-Nov-16 06:34N 22°37' E 120°06'1313.0
2014-Nov-16 05:34N 22°50' E 120°00'  

Dump ship's entire track history